createdAt,value
2022-08-11T00:00:37.743Z,13.8
2022-08-11T00:10:37.732Z,13.8
2022-08-11T00:20:37.773Z,13.8
2022-08-11T00:30:37.732Z,13.9
2022-08-11T00:35:51.906Z,13.9
2022-08-11T00:40:37.742Z,13.9
2022-08-11T00:50:37.739Z,13.8
2022-08-11T00:55:37.746Z,13.8
2022-08-11T01:05:37.779Z,13.8
2022-08-11T01:15:37.763Z,13.8
2022-08-11T01:25:57.061Z,13.9
2022-08-11T01:35:37.743Z,13.9
2022-08-11T01:40:37.752Z,13.9
2022-08-11T01:45:37.760Z,13.9
2022-08-11T01:50:37.783Z,13.8
2022-08-11T02:00:37.845Z,14
2022-08-11T02:10:38.475Z,13.8
2022-08-11T02:20:37.780Z,13.9
2022-08-11T02:30:37.790Z,13.9
2022-08-11T02:35:37.770Z,13.9
2022-08-11T02:40:37.797Z,13.9
2022-08-11T02:50:37.778Z,13.8
2022-08-11T02:55:44.696Z,13.9
2022-08-11T03:05:37.775Z,13.8
2022-08-11T03:10:37.786Z,13.8
2022-08-11T03:15:37.815Z,13.8
2022-08-11T03:25:37.819Z,13.8
2022-08-11T03:35:38.192Z,13.8
2022-08-11T03:45:41.178Z,13.8
2022-08-11T03:55:37.802Z,13.8
2022-08-11T04:00:37.820Z,13.9
2022-08-11T04:10:37.826Z,13.9
2022-08-11T04:20:37.809Z,13.9
2022-08-11T04:25:58.212Z,13.9
2022-08-11T04:30:40.485Z,13.9
2022-08-11T04:35:37.818Z,13.9
2022-08-11T04:40:37.856Z,13.9
2022-08-11T04:50:37.830Z,13.9
2022-08-11T05:00:37.817Z,13.9
2022-08-11T05:05:37.855Z,13.9
2022-08-11T05:15:43.022Z,13.9
2022-08-11T05:20:38.042Z,13.9
2022-08-11T05:26:44.690Z,13.9
2022-08-11T05:36:01.948Z,13.9
2022-08-11T05:40:37.868Z,13.8
2022-08-11T05:50:37.821Z,13.9
2022-08-11T05:56:02.330Z,13.9
2022-08-11T06:05:38.837Z,13.9
2022-08-11T06:10:37.872Z,13.8
2022-08-11T06:20:37.856Z,13.9
2022-08-11T06:30:37.875Z,13.9
2022-08-11T06:40:37.861Z,13.9
2022-08-11T06:50:37.861Z,13.8
2022-08-11T06:55:57.333Z,13.9
2022-08-11T07:00:37.862Z,13.8
2022-08-11T07:10:37.853Z,13.7
2022-08-11T07:16:08.960Z,13.8
2022-08-11T07:20:37.879Z,13.9
2022-08-11T07:30:37.865Z,13.8
2022-08-11T07:35:37.864Z,13.7
2022-08-11T07:40:37.892Z,13.7
2022-08-11T07:50:37.914Z,13.7
2022-08-11T08:00:37.918Z,13.7
2022-08-11T08:10:37.916Z,13.7
2022-08-11T08:15:37.899Z,13.8
2022-08-11T08:25:37.905Z,13.7
2022-08-11T08:30:37.920Z,13.7
2022-08-11T08:40:37.908Z,13.6
2022-08-11T08:50:37.926Z,13.7
2022-08-11T09:00:37.915Z,13.7
2022-08-11T09:05:37.948Z,13.6
2022-08-11T09:15:37.913Z,13.7
2022-08-11T09:20:37.955Z,13.7
2022-08-11T09:30:37.916Z,13.6
2022-08-11T09:35:37.922Z,13.5
2022-08-11T09:40:37.927Z,13.6
2022-08-11T09:45:40.291Z,13.7
2022-08-11T09:50:37.955Z,13.5
2022-08-11T09:55:37.966Z,13.7
2022-08-11T10:05:37.969Z,13.6
2022-08-11T10:15:37.936Z,13.7
2022-08-11T10:20:37.940Z,13.7
2022-08-11T10:30:37.938Z,13.7
2022-08-11T10:40:37.940Z,13.7
2022-08-11T10:45:37.944Z,13.6
2022-08-11T10:55:37.954Z,13.6
2022-08-11T11:00:37.948Z,13.6
2022-08-11T11:05:37.955Z,13.6
2022-08-11T11:15:37.961Z,13.6
2022-08-11T11:25:37.968Z,13.6
2022-08-11T11:30:37.972Z,13.6
2022-08-11T11:35:37.970Z,13.6
2022-08-11T11:45:37.950Z,13.6
2022-08-11T11:50:37.983Z,13.6
2022-08-11T11:55:37.972Z,13.6
2022-08-11T12:05:37.985Z,13.6
2022-08-11T12:10:37.977Z,13.5
2022-08-11T12:16:04.411Z,13.5
2022-08-11T12:20:37.977Z,13.5
2022-08-11T12:25:37.989Z,13.5
2022-08-11T12:35:37.981Z,13.5
2022-08-11T12:45:37.968Z,13.6
2022-08-11T12:50:37.968Z,13.6
2022-08-11T12:55:37.990Z,13.6
2022-08-11T13:05:41.317Z,13.6
2022-08-11T13:15:37.983Z,13.7
2022-08-11T13:20:37.986Z,13.6
2022-08-11T13:30:41.166Z,13.6
2022-08-11T13:35:38.007Z,13.5
2022-08-11T13:45:37.987Z,13.5
2022-08-11T13:50:38.007Z,13.5
2022-08-11T14:00:38.007Z,13.6
2022-08-11T14:05:38.005Z,13.6
2022-08-11T14:15:38.013Z,13.5
2022-08-11T14:20:40.815Z,13.6
2022-08-11T14:30:38.014Z,13.6
2022-08-11T14:40:38.017Z,13.6
2022-08-11T14:45:58.065Z,13.5
2022-08-11T14:55:38.021Z,13.6
2022-08-11T15:05:38.009Z,13.6
2022-08-11T15:10:38.032Z,13.6
2022-08-11T15:20:38.008Z,13.7
2022-08-11T15:30:38.020Z,13.7
2022-08-11T15:40:38.008Z,13.7
2022-08-11T15:45:38.022Z,13.6
2022-08-11T15:50:38.033Z,13.7
2022-08-11T15:55:38.034Z,13.7
2022-08-11T16:05:45.805Z,13.7
2022-08-11T16:10:38.030Z,13.7
2022-08-11T16:20:38.040Z,13.7
2022-08-11T16:27:05.148Z,13.6
2022-08-11T16:35:38.034Z,13.5
2022-08-11T16:40:38.045Z,13.6
2022-08-11T16:50:38.043Z,13.6
2022-08-11T17:00:38.079Z,13.6
2022-08-11T17:10:51.868Z,13.7
2022-08-11T17:15:38.056Z,13.7
2022-08-11T17:25:59.189Z,13.7
2022-08-11T17:30:38.051Z,13.7
2022-08-11T17:40:38.038Z,12.8
2022-08-11T17:45:38.042Z,13.4
2022-08-11T17:50:38.057Z,13.5
2022-08-11T18:00:38.064Z,13.5
2022-08-11T18:05:38.114Z,13.6
2022-08-11T18:15:38.056Z,13.6
2022-08-11T18:20:38.067Z,13.7
2022-08-11T18:30:38.063Z,13.6
2022-08-11T18:35:38.065Z,13.6
2022-08-11T18:45:45.248Z,13.6
2022-08-11T18:55:38.064Z,13.7
2022-08-11T19:06:05.976Z,13.7
2022-08-11T19:15:38.047Z,13.7
2022-08-11T19:20:38.050Z,13.6
2022-08-11T19:25:38.081Z,13.8
2022-08-11T19:35:38.064Z,13.8
2022-08-11T19:40:38.074Z,13.7
2022-08-11T19:50:38.066Z,13.8
2022-08-11T19:55:38.080Z,13.9
2022-08-11T20:05:38.059Z,13.8
2022-08-11T20:10:38.063Z,13.8
2022-08-11T20:15:38.069Z,13.8
2022-08-11T20:20:38.075Z,13.8
2022-08-11T20:25:38.083Z,13.8
2022-08-11T20:35:38.077Z,13.8
2022-08-11T20:40:38.088Z,13.8
2022-08-11T20:50:38.085Z,13.7
2022-08-11T20:55:51.572Z,13.8
2022-08-11T21:00:39.123Z,13.8
2022-08-11T21:10:38.075Z,13.9
2022-08-11T21:15:38.892Z,13.7
2022-08-11T21:25:38.087Z,13.7
2022-08-11T21:30:38.096Z,13.8
2022-08-11T21:40:38.089Z,13.7
2022-08-11T21:45:38.103Z,13.7
2022-08-11T21:55:38.104Z,13.6
2022-08-11T22:05:38.112Z,13.7
2022-08-11T22:15:38.100Z,13.7
2022-08-11T22:20:38.117Z,13.6
2022-08-11T22:30:38.122Z,13.7
2022-08-11T22:35:38.115Z,13.8
2022-08-11T22:40:38.129Z,13.7
2022-08-11T22:45:38.122Z,13.7
2022-08-11T22:50:38.128Z,13.7
2022-08-11T22:55:38.139Z,13.7
2022-08-11T23:05:38.111Z,13.7
2022-08-11T23:10:38.133Z,13.7
2022-08-11T23:20:45.582Z,13.8
2022-08-11T23:30:38.145Z,13.9
2022-08-11T23:35:54.832Z,13.7
2022-08-11T23:40:38.149Z,13.8
2022-08-11T23:50:38.154Z,13.8
